Nomadic Bergen — 2BYA3 — position and weather

sailwx.info

Track history (hours):
 
Tides and Currents Weather Stations Pressure Air Temp Water Temp Dewpoint Dewpoint Depression Visibility Wind Speed Wind Dir Waves Ship Positions

Nomadic Bergen

Last reported at 2017-Sep-25 13:28 UTC. Time now 2017-Sep-25 13:38 UTC.
Position N 49°26' E 000°15'.

Length 108 m; draft 7.4 m.

Type: Ship. MMSI: 235070364.

Date/timePositionNaut miles runAvg speedWind from/ knotsBaromVisibWave heightAir tempDewpointWater temp
2017-Sep-25 13:28N 49°26' E 000°15'0 0.0
2017-Sep-25 12:58N 49°26' E 000°15'0 0.2
2017-Sep-25 12:30N 49°26' E 000°15'2 3.4
2017-Sep-25 12:00N 49°26' E 000°12'5 9.6
2017-Sep-25 11:30N 49°26' E 000°05'5 9.4
2017-Sep-25 11:00N 49°28' W 000°02'5 9.8
2017-Sep-25 10:30N 49°30' W 000°09'611.1
2017-Sep-25 10:00N 49°32' W 000°17'611.3
2017-Sep-25 09:30N 49°34' W 000°25'92 8.8
2017-Sep-24 23:00N 49°49' W 002°45'611.3
2017-Sep-24 22:30N 49°47' W 002°53'911.3
2017-Sep-24 21:43N 49°43' W 003°05'211.2
2017-Sep-24 21:31N 49°42' W 003°08'611.1
2017-Sep-24 21:00N 49°39' W 003°16'611.2
2017-Sep-24 20:30N 49°36' W 003°23'611.2
2017-Sep-24 20:01N 49°33' W 003°31'1811.2
2017-Sep-24 18:22N 49°24' W 003°55'2410.6
2017-Sep-24 16:06N 49°12' W 004°27'110.0
2017-Sep-24 16:00N 49°12' W 004°28'7 9.8
2017-Sep-24 15:17N 49°08' W 004°38'4 9.4
2017-Sep-24 14:54N 49°07' W 004°42'4 8.9
2017-Sep-24 14:29N 49°05' W 004°47'40 8.3
2017-Sep-24 09:43N 48°44' W 005°38'  
2017-Sep-21 19:35N 40°14' W 009°49'2 7.5
2017-Sep-21 19:21N 40°12' W 009°49'5 7.7
2017-Sep-21 18:46N 40°08' W 009°49'2 7.9
2017-Sep-21 18:31N 40°06' W 009°49'34 8.2
2017-Sep-21 14:19N 39°31' W 009°50'3 8.7
2017-Sep-21 13:58N 39°28' W 009°50'4 8.7
2017-Sep-21 13:30N 39°24' W 009°50'4 8.9
2017-Sep-21 13:00N 39°20' W 009°50'5 9.6
2017-Sep-21 12:30N 39°15' W 009°51'5 9.7
2017-Sep-21 12:01N 39°10' W 009°51'5 9.6
2017-Sep-21 11:30N 39°05' W 009°51'5 9.9
2017-Sep-21 11:00N 39°00' W 009°51'5 9.9
2017-Sep-21 10:30N 38°55' W 009°51'5 9.4
2017-Sep-21 10:00N 38°51' W 009°50'5 9.7
2017-Sep-21 09:30N 38°46' W 009°50'5 9.5
2017-Sep-21 09:00N 38°41' W 009°50'4 8.7
2017-Sep-21 08:30N 38°37' W 009°48'5 9.2
2017-Sep-21 08:00N 38°35' W 009°42'5 9.4
2017-Sep-21 07:30N 38°33' W 009°37'5 9.8
2017-Sep-21 07:00N 38°31' W 009°32'5 9.0
2017-Sep-21 06:29N 38°29' W 009°26'4 8.9
2017-Sep-21 06:00N 38°27' W 009°21'5 9.8
2017-Sep-21 05:30N 38°24' W 009°16'5 9.7
2017-Sep-21 05:00N 38°23' W 009°10'5 9.9
2017-Sep-21 04:30N 38°24' W 009°04'5 9.2
2017-Sep-21 04:00N 38°27' W 008°59'4 8.7
2017-Sep-21 03:31N 38°30' W 008°55'4 8.3
2017-Sep-21 02:59N 38°28' W 008°50'2 3.5
2017-Sep-21 02:18N 38°28' W 008°47'0 0.0
2017-Sep-21 01:51N 38°28' W 008°47'0 0.0
2017-Sep-21 01:24N 38°28' W 008°47'0 0.0
2017-Sep-20 23:15N 38°28' W 008°47'0 0.0
2017-Sep-20 22:54N 38°28' W 008°47'0 0.0
2017-Sep-20 22:12N 38°28' W 008°47'0 0.0
2017-Sep-20 21:57N 38°28' W 008°47'0 0.0
2017-Sep-20 21:30N 38°28' W 008°47'0 0.0
2017-Sep-20 20:51N 38°28' W 008°47'0 0.0
2017-Sep-20 20:18N 38°28' W 008°47'0 0.0
2017-Sep-20 20:00N 38°28' W 008°47'0 0.0
2017-Sep-20 19:30N 38°28' W 008°47'0 0.0
2017-Sep-20 19:00N 38°28' W 008°47'0 0.0
2017-Sep-20 18:30N 38°28' W 008°47'0 0.0
2017-Sep-20 17:57N 38°28' W 008°47'0 0.0
2017-Sep-20 17:30N 38°28' W 008°47'0 0.0
2017-Sep-20 17:00N 38°28' W 008°47'0 0.0
2017-Sep-20 16:15N 38°28' W 008°47'0 0.0
2017-Sep-20 16:00N 38°28' W 008°47'0 0.0
2017-Sep-20 15:27N 38°28' W 008°47'0 0.0
2017-Sep-20 15:00N 38°28' W 008°47'0 0.0
2017-Sep-20 12:45N 38°28' W 008°47'0 0.0
2017-Sep-20 12:30N 38°28' W 008°47'0 0.0
2017-Sep-20 12:00N 38°28' W 008°47'0 0.0
2017-Sep-20 11:27N 38°28' W 008°47'0 0.0
2017-Sep-20 11:00N 38°28' W 008°47'0 0.0
2017-Sep-20 10:27N 38°28' W 008°47'0 0.0
2017-Sep-20 10:00N 38°28' W 008°47'0 0.0
2017-Sep-20 08:54N 38°28' W 008°47'0 0.0
2017-Sep-20 08:21N 38°28' W 008°47'0 0.0
2017-Sep-20 07:36N 38°28' W 008°47'0 0.0
2017-Sep-20 07:30N 38°28' W 008°47'0 0.0
2017-Sep-20 07:00N 38°28' W 008°47'0 0.0
2017-Sep-20 06:26N 38°28' W 008°47'1 2.9
2017-Sep-20 06:00N 38°28' W 008°48'4 8.8
2017-Sep-20 05:30N 38°30' W 008°53'4 7.1
2017-Sep-20 05:00N 38°28' W 008°57'5 9.2
2017-Sep-20 04:30N 38°24' W 009°01'3 5.7
2017-Sep-20 04:01N 38°24' W 009°05'3 5.7
2017-Sep-20 03:30N 38°23' W 009°08'2 5.0
2017-Sep-20 03:00N 38°23' W 009°11'2 4.8
2017-Sep-20 02:31N 38°23' W 009°14'2 4.9
2017-Sep-20 02:00N 38°23' W 009°17'3 5.3
2017-Sep-20 01:31N 38°24' W 009°21'2 4.5
2017-Sep-20 01:00N 38°26' W 009°23'2 4.1
2017-Sep-20 00:31N 38°28' W 009°23'2 3.6
2017-Sep-20 00:01N 38°30' W 009°23'2 3.7
2017-Sep-19 23:31N 38°31' W 009°23'2 3.6
2017-Sep-19 23:00N 38°33' W 009°23'2 3.6
2017-Sep-19 22:31N 38°35' W 009°23'2 4.7
2017-Sep-19 22:00N 38°37' W 009°22'5 9.1
2017-Sep-19 21:30N 38°41' W 009°18'4 8.1
2017-Sep-19 21:00N 38°41' W 009°13'4 8.4
2017-Sep-19 20:30N 38°42' W 009°08'2 4.3
2017-Sep-19 19:59N 38°44' W 009°06'0 0.0
2017-Sep-19 19:29N 38°44' W 009°06'0 0.0
2017-Sep-19 18:59N 38°44' W 009°06'0 0.0
2017-Sep-19 18:29N 38°44' W 009°06'0 0.0
2017-Sep-19 17:53N 38°44' W 009°06'0 0.0
2017-Sep-19 17:29N 38°44' W 009°06'0 0.0
2017-Sep-19 16:59N 38°44' W 009°06'0 0.0
2017-Sep-19 16:29N 38°44' W 009°06'0 0.0
2017-Sep-19 15:59N 38°44' W 009°06'0 0.0
2017-Sep-19 15:29N 38°44' W 009°06'0 0.0
2017-Sep-19 14:59N 38°44' W 009°06'0 0.0
2017-Sep-19 14:29N 38°44' W 009°06'0 0.0
2017-Sep-19 13:56N 38°44' W 009°06'0 0.0
2017-Sep-19 13:29N 38°44' W 009°06'0 0.0
2017-Sep-19 12:59N 38°44' W 009°06'0 0.0
2017-Sep-19 12:29N 38°44' W 009°06'0 0.0
2017-Sep-19 11:59N 38°44' W 009°06'0 0.0
2017-Sep-19 11:29N 38°44' W 009°06'0 0.0
2017-Sep-19 10:59N 38°44' W 009°06'0 0.0
2017-Sep-19 10:29N 38°44' W 009°06'0 0.0
2017-Sep-19 09:59N 38°44' W 009°06'0 0.0
2017-Sep-19 09:29N 38°44' W 009°06'0 0.0
2017-Sep-19 08:59N 38°44' W 009°06'0 0.0
2017-Sep-19 08:29N 38°44' W 009°06'0 0.0
2017-Sep-19 07:59N 38°44' W 009°06'0 0.0
2017-Sep-19 07:26N 38°44' W 009°06'0 0.0
2017-Sep-19 06:59N 38°44' W 009°06'0 0.0
2017-Sep-19 06:26N 38°44' W 009°06'0 0.0
2017-Sep-19 05:59N 38°44' W 009°06'0 0.0
2017-Sep-19 05:29N 38°44' W 009°06'0 0.0
2017-Sep-19 04:59N 38°44' W 009°06'0 0.0
2017-Sep-19 04:29N 38°44' W 009°06'0 0.0
2017-Sep-19 03:59N 38°44' W 009°06'0 0.0
2017-Sep-19 03:29N 38°44' W 009°06'0 0.0
2017-Sep-19 02:59N 38°44' W 009°06'0 0.0
2017-Sep-19 02:29N 38°44' W 009°06'0 0.0
2017-Sep-19 01:59N 38°44' W 009°06'0 0.0
2017-Sep-19 01:29N 38°44' W 009°06'0 0.0
2017-Sep-19 00:59N 38°44' W 009°06'0 0.0
2017-Sep-19 00:29N 38°44' W 009°06'0 0.0
2017-Sep-18 23:59N 38°44' W 009°06'0 0.0
2017-Sep-18 23:29N 38°44' W 009°06'0 0.0
2017-Sep-18 22:59N 38°44' W 009°06'0 0.0
2017-Sep-18 22:29N 38°44' W 009°06'0 0.0
2017-Sep-18 21:59N 38°44' W 009°06'0 0.0
2017-Sep-18 21:29N 38°44' W 009°06'0 0.0
2017-Sep-18 20:59N 38°44' W 009°06'0 0.0
2017-Sep-18 20:31N 38°44' W 009°06'0 0.7
2017-Sep-18 20:01N 38°44' W 009°06'3 6.3
2017-Sep-18 19:29N 38°42' W 009°09'4 7.8
2017-Sep-18 19:00N 38°41' W 009°14'3 6.5
2017-Sep-18 18:30N 38°40' W 009°18'3 5.4
2017-Sep-18 18:01N 38°38' W 009°21'3 6.6
2017-Sep-18 17:31N 38°36' W 009°23'2 3.0
2017-Sep-18 17:01N 38°35' W 009°22'0 0.9
2017-Sep-18 16:31N 38°35' W 009°23'1 2.3
2017-Sep-18 16:00N 38°36' W 009°24'4 8.6
2017-Sep-18 15:30N 38°38' W 009°29'510.0
2017-Sep-18 15:01N 38°38' W 009°35'5 9.7
2017-Sep-18 14:30N 38°40' W 009°41'510.1
2017-Sep-18 14:00N 38°45' W 009°43'510.6
2017-Sep-18 13:30N 38°50' W 009°44'510.4
2017-Sep-18 13:00N 38°55' W 009°44'510.2
2017-Sep-18 12:30N 39°00' W 009°45'5 9.7
2017-Sep-18 12:00N 39°05' W 009°45'510.2
2017-Sep-18 11:30N 39°10' W 009°46'510.3
2017-Sep-18 11:00N 39°15' W 009°46'510.6
2017-Sep-18 10:30N 39°20' W 009°47'510.6
2017-Sep-18 10:00N 39°26' W 009°47'  
Track history (hours):
 
Tides and Currents Weather Stations Pressure Air Temp Water Temp Dewpoint Dewpoint Depression Visibility Wind Speed Wind Dir Waves Ship Positions

Nomadic Bergen

Last reported at 2017-Sep-25 13:28 UTC. Time now 2017-Sep-25 13:38 UTC.
Position N 49°26' E 000°15'.

Length 108 m; draft 7.4 m.

Type: Ship. MMSI: 235070364.

Date/timePositionNaut miles runAvg speedWind from/ knotsBaromVisibWave heightAir tempDewpointWater temp
2017-Sep-25 13:28N 49°26' E 000°15'0 0.0
2017-Sep-25 12:58N 49°26' E 000°15'0 0.2
2017-Sep-25 12:30N 49°26' E 000°15'2 3.4
2017-Sep-25 12:00N 49°26' E 000°12'5 9.6
2017-Sep-25 11:30N 49°26' E 000°05'5 9.4
2017-Sep-25 11:00N 49°28' W 000°02'5 9.8
2017-Sep-25 10:30N 49°30' W 000°09'611.1
2017-Sep-25 10:00N 49°32' W 000°17'611.3
2017-Sep-25 09:30N 49°34' W 000°25'92 8.8
2017-Sep-24 23:00N 49°49' W 002°45'611.3
2017-Sep-24 22:30N 49°47' W 002°53'911.3
2017-Sep-24 21:43N 49°43' W 003°05'211.2
2017-Sep-24 21:31N 49°42' W 003°08'611.1
2017-Sep-24 21:00N 49°39' W 003°16'611.2
2017-Sep-24 20:30N 49°36' W 003°23'611.2
2017-Sep-24 20:01N 49°33' W 003°31'1811.2
2017-Sep-24 18:22N 49°24' W 003°55'2410.6
2017-Sep-24 16:06N 49°12' W 004°27'110.0
2017-Sep-24 16:00N 49°12' W 004°28'7 9.8
2017-Sep-24 15:17N 49°08' W 004°38'4 9.4
2017-Sep-24 14:54N 49°07' W 004°42'4 8.9
2017-Sep-24 14:29N 49°05' W 004°47'40 8.3
2017-Sep-24 09:43N 48°44' W 005°38'  
2017-Sep-21 19:35N 40°14' W 009°49'2 7.5
2017-Sep-21 19:21N 40°12' W 009°49'5 7.7
2017-Sep-21 18:46N 40°08' W 009°49'2 7.9
2017-Sep-21 18:31N 40°06' W 009°49'34 8.2
2017-Sep-21 14:19N 39°31' W 009°50'3 8.7
2017-Sep-21 13:58N 39°28' W 009°50'4 8.7
2017-Sep-21 13:30N 39°24' W 009°50'4 8.9
2017-Sep-21 13:00N 39°20' W 009°50'5 9.6
2017-Sep-21 12:30N 39°15' W 009°51'5 9.7
2017-Sep-21 12:01N 39°10' W 009°51'5 9.6
2017-Sep-21 11:30N 39°05' W 009°51'5 9.9
2017-Sep-21 11:00N 39°00' W 009°51'5 9.9
2017-Sep-21 10:30N 38°55' W 009°51'5 9.4
2017-Sep-21 10:00N 38°51' W 009°50'5 9.7
2017-Sep-21 09:30N 38°46' W 009°50'5 9.5
2017-Sep-21 09:00N 38°41' W 009°50'4 8.7
2017-Sep-21 08:30N 38°37' W 009°48'5 9.2
2017-Sep-21 08:00N 38°35' W 009°42'5 9.4
2017-Sep-21 07:30N 38°33' W 009°37'5 9.8
2017-Sep-21 07:00N 38°31' W 009°32'5 9.0
2017-Sep-21 06:29N 38°29' W 009°26'4 8.9
2017-Sep-21 06:00N 38°27' W 009°21'5 9.8
2017-Sep-21 05:30N 38°24' W 009°16'5 9.7
2017-Sep-21 05:00N 38°23' W 009°10'5 9.9
2017-Sep-21 04:30N 38°24' W 009°04'5 9.2
2017-Sep-21 04:00N 38°27' W 008°59'4 8.7
2017-Sep-21 03:31N 38°30' W 008°55'4 8.3
2017-Sep-21 02:59N 38°28' W 008°50'2 3.5
2017-Sep-21 02:18N 38°28' W 008°47'0 0.0
2017-Sep-21 01:51N 38°28' W 008°47'0 0.0
2017-Sep-21 01:24N 38°28' W 008°47'0 0.0
2017-Sep-20 23:15N 38°28' W 008°47'0 0.0
2017-Sep-20 22:54N 38°28' W 008°47'0 0.0
2017-Sep-20 22:12N 38°28' W 008°47'0 0.0
2017-Sep-20 21:57N 38°28' W 008°47'0 0.0
2017-Sep-20 21:30N 38°28' W 008°47'0 0.0
2017-Sep-20 20:51N 38°28' W 008°47'0 0.0
2017-Sep-20 20:18N 38°28' W 008°47'0 0.0
2017-Sep-20 20:00N 38°28' W 008°47'0 0.0
2017-Sep-20 19:30N 38°28' W 008°47'0 0.0
2017-Sep-20 19:00N 38°28' W 008°47'0 0.0
2017-Sep-20 18:30N 38°28' W 008°47'0 0.0
2017-Sep-20 17:57N 38°28' W 008°47'0 0.0
2017-Sep-20 17:30N 38°28' W 008°47'0 0.0
2017-Sep-20 17:00N 38°28' W 008°47'0 0.0
2017-Sep-20 16:15N 38°28' W 008°47'0 0.0
2017-Sep-20 16:00N 38°28' W 008°47'0 0.0
2017-Sep-20 15:27N 38°28' W 008°47'0 0.0
2017-Sep-20 15:00N 38°28' W 008°47'0 0.0
2017-Sep-20 12:45N 38°28' W 008°47'0 0.0
2017-Sep-20 12:30N 38°28' W 008°47'0 0.0
2017-Sep-20 12:00N 38°28' W 008°47'0 0.0
2017-Sep-20 11:27N 38°28' W 008°47'0 0.0
2017-Sep-20 11:00N 38°28' W 008°47'0 0.0
2017-Sep-20 10:27N 38°28' W 008°47'0 0.0
2017-Sep-20 10:00N 38°28' W 008°47'0 0.0
2017-Sep-20 08:54N 38°28' W 008°47'0 0.0
2017-Sep-20 08:21N 38°28' W 008°47'0 0.0
2017-Sep-20 07:36N 38°28' W 008°47'0 0.0
2017-Sep-20 07:30N 38°28' W 008°47'0 0.0
2017-Sep-20 07:00N 38°28' W 008°47'0 0.0
2017-Sep-20 06:26N 38°28' W 008°47'1 2.9
2017-Sep-20 06:00N 38°28' W 008°48'4 8.8
2017-Sep-20 05:30N 38°30' W 008°53'4 7.1
2017-Sep-20 05:00N 38°28' W 008°57'5 9.2
2017-Sep-20 04:30N 38°24' W 009°01'3 5.7
2017-Sep-20 04:01N 38°24' W 009°05'3 5.7
2017-Sep-20 03:30N 38°23' W 009°08'2 5.0
2017-Sep-20 03:00N 38°23' W 009°11'2 4.8
2017-Sep-20 02:31N 38°23' W 009°14'2 4.9
2017-Sep-20 02:00N 38°23' W 009°17'3 5.3
2017-Sep-20 01:31N 38°24' W 009°21'2 4.5
2017-Sep-20 01:00N 38°26' W 009°23'2 4.1
2017-Sep-20 00:31N 38°28' W 009°23'2 3.6
2017-Sep-20 00:01N 38°30' W 009°23'2 3.7
2017-Sep-19 23:31N 38°31' W 009°23'2 3.6
2017-Sep-19 23:00N 38°33' W 009°23'2 3.6
2017-Sep-19 22:31N 38°35' W 009°23'2 4.7
2017-Sep-19 22:00N 38°37' W 009°22'5 9.1
2017-Sep-19 21:30N 38°41' W 009°18'4 8.1
2017-Sep-19 21:00N 38°41' W 009°13'4 8.4
2017-Sep-19 20:30N 38°42' W 009°08'2 4.3
2017-Sep-19 19:59N 38°44' W 009°06'0 0.0
2017-Sep-19 19:29N 38°44' W 009°06'0 0.0
2017-Sep-19 18:59N 38°44' W 009°06'0 0.0
2017-Sep-19 18:29N 38°44' W 009°06'0 0.0
2017-Sep-19 17:53N 38°44' W 009°06'0 0.0
2017-Sep-19 17:29N 38°44' W 009°06'0 0.0
2017-Sep-19 16:59N 38°44' W 009°06'0 0.0
2017-Sep-19 16:29N 38°44' W 009°06'0 0.0
2017-Sep-19 15:59N 38°44' W 009°06'0 0.0
2017-Sep-19 15:29N 38°44' W 009°06'0 0.0
2017-Sep-19 14:59N 38°44' W 009°06'0 0.0
2017-Sep-19 14:29N 38°44' W 009°06'0 0.0
2017-Sep-19 13:56N 38°44' W 009°06'0 0.0
2017-Sep-19 13:29N 38°44' W 009°06'0 0.0
2017-Sep-19 12:59N 38°44' W 009°06'0 0.0
2017-Sep-19 12:29N 38°44' W 009°06'0 0.0
2017-Sep-19 11:59N 38°44' W 009°06'0 0.0
2017-Sep-19 11:29N 38°44' W 009°06'0 0.0
2017-Sep-19 10:59N 38°44' W 009°06'0 0.0
2017-Sep-19 10:29N 38°44' W 009°06'0 0.0
2017-Sep-19 09:59N 38°44' W 009°06'0 0.0
2017-Sep-19 09:29N 38°44' W 009°06'0 0.0
2017-Sep-19 08:59N 38°44' W 009°06'0 0.0
2017-Sep-19 08:29N 38°44' W 009°06'0 0.0
2017-Sep-19 07:59N 38°44' W 009°06'0 0.0
2017-Sep-19 07:26N 38°44' W 009°06'0 0.0
2017-Sep-19 06:59N 38°44' W 009°06'0 0.0
2017-Sep-19 06:26N 38°44' W 009°06'0 0.0
2017-Sep-19 05:59N 38°44' W 009°06'0 0.0
2017-Sep-19 05:29N 38°44' W 009°06'0 0.0
2017-Sep-19 04:59N 38°44' W 009°06'0 0.0
2017-Sep-19 04:29N 38°44' W 009°06'0 0.0
2017-Sep-19 03:59N 38°44' W 009°06'0 0.0
2017-Sep-19 03:29N 38°44' W 009°06'0 0.0
2017-Sep-19 02:59N 38°44' W 009°06'0 0.0
2017-Sep-19 02:29N 38°44' W 009°06'0 0.0
2017-Sep-19 01:59N 38°44' W 009°06'0 0.0
2017-Sep-19 01:29N 38°44' W 009°06'0 0.0
2017-Sep-19 00:59N 38°44' W 009°06'0 0.0
2017-Sep-19 00:29N 38°44' W 009°06'0 0.0
2017-Sep-18 23:59N 38°44' W 009°06'0 0.0
2017-Sep-18 23:29N 38°44' W 009°06'0 0.0
2017-Sep-18 22:59N 38°44' W 009°06'0 0.0
2017-Sep-18 22:29N 38°44' W 009°06'0 0.0
2017-Sep-18 21:59N 38°44' W 009°06'0 0.0
2017-Sep-18 21:29N 38°44' W 009°06'0 0.0
2017-Sep-18 20:59N 38°44' W 009°06'0 0.0
2017-Sep-18 20:31N 38°44' W 009°06'0 0.7
2017-Sep-18 20:01N 38°44' W 009°06'3 6.3
2017-Sep-18 19:29N 38°42' W 009°09'4 7.8
2017-Sep-18 19:00N 38°41' W 009°14'3 6.5
2017-Sep-18 18:30N 38°40' W 009°18'3 5.4
2017-Sep-18 18:01N 38°38' W 009°21'3 6.6
2017-Sep-18 17:31N 38°36' W 009°23'2 3.0
2017-Sep-18 17:01N 38°35' W 009°22'0 0.9
2017-Sep-18 16:31N 38°35' W 009°23'1 2.3
2017-Sep-18 16:00N 38°36' W 009°24'4 8.6
2017-Sep-18 15:30N 38°38' W 009°29'510.0
2017-Sep-18 15:01N 38°38' W 009°35'5 9.7
2017-Sep-18 14:30N 38°40' W 009°41'510.1
2017-Sep-18 14:00N 38°45' W 009°43'510.6
2017-Sep-18 13:30N 38°50' W 009°44'510.4
2017-Sep-18 13:00N 38°55' W 009°44'510.2
2017-Sep-18 12:30N 39°00' W 009°45'5 9.7
2017-Sep-18 12:00N 39°05' W 009°45'510.2
2017-Sep-18 11:30N 39°10' W 009°46'510.3
2017-Sep-18 11:00N 39°15' W 009°46'510.6
2017-Sep-18 10:30N 39°20' W 009°47'510.6
2017-Sep-18 10:00N 39°26' W 009°47'  

Dump ship's entire track history